createdAt,value
2017-12-26T00:00:32.990Z,6.10
2017-12-26T00:03:01.977Z,5.90
2017-12-26T00:05:30.206Z,5.90
2017-12-26T00:07:58.429Z,5.90
2017-12-26T00:10:26.641Z,5.90
2017-12-26T00:12:54.922Z,5.80
2017-12-26T00:15:23.182Z,5.70
2017-12-26T00:17:52.146Z,5.60
2017-12-26T00:20:20.428Z,5.50
2017-12-26T00:22:49.738Z,5.50
2017-12-26T00:25:18.011Z,5.50
2017-12-26T00:27:46.229Z,5.60
2017-12-26T00:30:14.457Z,5.60
2017-12-26T00:32:42.685Z,5.60
2017-12-26T00:35:10.937Z,5.70
2017-12-26T00:37:39.150Z,5.80
2017-12-26T00:40:07.387Z,5.80
2017-12-26T00:42:35.601Z,5.90
2017-12-26T00:45:03.826Z,5.90
2017-12-26T00:47:32.782Z,6.10
2017-12-26T00:50:01.011Z,6.00
2017-12-26T00:52:29.214Z,6.10
2017-12-26T00:54:57.469Z,6.10
2017-12-26T00:57:25.682Z,6.10
2017-12-26T00:59:53.890Z,6.10
2017-12-26T01:02:22.892Z,6.00
2017-12-26T01:04:51.108Z,6.00
2017-12-26T01:07:19.334Z,6.00
2017-12-26T01:09:47.793Z,5.90
2017-12-26T01:12:16.806Z,5.90
2017-12-26T01:14:45.034Z,5.80
2017-12-26T01:17:13.298Z,5.80
2017-12-26T01:19:41.507Z,5.70
2017-12-26T01:22:09.756Z,5.70
2017-12-26T01:24:38.006Z,5.60
2017-12-26T01:27:06.213Z,5.50
2017-12-26T01:29:34.443Z,5.40
2017-12-26T01:32:02.657Z,5.30
2017-12-26T01:34:30.906Z,5.30
2017-12-26T01:36:59.949Z,5.20
2017-12-26T01:39:28.149Z,5.20
2017-12-26T01:41:56.386Z,5.20
2017-12-26T01:44:24.607Z,5.10
2017-12-26T01:46:52.854Z,5.10
2017-12-26T01:49:21.826Z,5.00
2017-12-26T01:51:50.880Z,5.00
2017-12-26T01:54:19.129Z,5.00
2017-12-26T01:56:47.359Z,5.00
2017-12-26T01:59:15.561Z,5.00
2017-12-26T02:01:44.544Z,4.90
2017-12-26T02:04:13.544Z,4.90
2017-12-26T02:06:41.762Z,4.90
2017-12-26T02:09:09.990Z,4.90
2017-12-26T02:11:39.021Z,4.90
2017-12-26T02:14:07.232Z,4.90
2017-12-26T02:16:35.443Z,4.90
2017-12-26T02:19:04.433Z,4.90
2017-12-26T02:21:33.428Z,4.90
2017-12-26T02:24:02.410Z,4.90
2017-12-26T02:26:31.413Z,4.90
2017-12-26T02:28:59.646Z,4.90
2017-12-26T02:31:27.850Z,4.90
2017-12-26T02:33:56.846Z,4.90
2017-12-26T02:36:25.849Z,4.90
2017-12-26T02:38:54.818Z,4.90
2017-12-26T02:41:23.925Z,4.90
2017-12-26T02:43:52.922Z,4.90
2017-12-26T02:46:22.216Z,4.90
2017-12-26T02:48:51.214Z,4.90
2017-12-26T02:51:19.470Z,4.90
2017-12-26T02:53:47.677Z,4.90
2017-12-26T02:56:16.960Z,4.90
2017-12-26T02:58:45.957Z,4.90
2017-12-26T03:01:14.934Z,4.90
2017-12-26T03:03:43.418Z,4.90
2017-12-26T03:06:12.401Z,4.90
2017-12-26T03:08:47.364Z,5.00
2017-12-26T03:11:15.578Z,4.90
2017-12-26T03:13:43.820Z,5.00
2017-12-26T03:16:12.029Z,5.00
2017-12-26T03:18:40.252Z,5.10
2017-12-26T03:21:08.506Z,5.10
2017-12-26T03:23:36.721Z,5.10
2017-12-26T03:26:04.958Z,5.10
2017-12-26T03:28:33.973Z,5.10
2017-12-26T03:31:02.239Z,5.10
2017-12-26T03:33:31.231Z,5.20
2017-12-26T03:36:00.232Z,5.20
2017-12-26T03:38:29.221Z,5.30
2017-12-26T03:40:57.477Z,5.20
2017-12-26T03:43:26.465Z,5.20
2017-12-26T03:45:54.677Z,5.20
2017-12-26T03:48:22.923Z,5.30
2017-12-26T03:50:51.126Z,5.30
2017-12-26T03:53:19.345Z,5.40
2017-12-26T03:55:47.561Z,5.40
2017-12-26T03:58:15.816Z,5.40
2017-12-26T04:00:44.236Z,5.40
2017-12-26T04:03:12.476Z,5.40
2017-12-26T04:05:40.728Z,5.40
2017-12-26T04:08:08.962Z,5.50
2017-12-26T04:10:37.197Z,5.40
2017-12-26T04:13:05.401Z,5.40
2017-12-26T04:15:33.648Z,5.40
2017-12-26T04:18:02.132Z,5.50
2017-12-26T04:20:31.145Z,5.50
2017-12-26T04:22:59.362Z,5.50
2017-12-26T04:25:27.586Z,5.50
2017-12-26T04:27:55.820Z,5.50
2017-12-26T04:30:24.028Z,5.60
2017-12-26T04:32:52.253Z,5.60
2017-12-26T04:35:20.483Z,5.60
2017-12-26T04:37:49.477Z,5.70
2017-12-26T04:40:17.694Z,5.60
2017-12-26T04:42:46.685Z,5.70
2017-12-26T04:45:14.931Z,5.70
2017-12-26T04:47:43.144Z,5.80
2017-12-26T04:50:12.682Z,5.80
2017-12-26T04:52:41.677Z,5.90
2017-12-26T04:55:10.696Z,6.00
2017-12-26T04:57:38.902Z,5.90
2017-12-26T05:00:07.142Z,6.00
2017-12-26T05:02:35.357Z,6.00
2017-12-26T05:05:03.875Z,6.00
2017-12-26T05:07:32.114Z,6.00
2017-12-26T05:10:00.318Z,6.00
2017-12-26T05:12:29.523Z,6.00
2017-12-26T05:14:58.819Z,6.00
2017-12-26T05:17:27.798Z,6.10
2017-12-26T05:19:56.810Z,6.10
2017-12-26T05:22:25.817Z,6.10
2017-12-26T05:24:54.807Z,6.10
2017-12-26T05:27:23.770Z,6.20
2017-12-26T05:29:52.029Z,6.10
2017-12-26T05:32:20.241Z,6.10
2017-12-26T05:34:49.222Z,6.20
2017-12-26T05:37:17.802Z,6.10
2017-12-26T05:39:46.789Z,6.20
2017-12-26T05:42:15.814Z,6.20
2017-12-26T05:44:44.783Z,6.30
2017-12-26T05:47:13.782Z,6.30
2017-12-26T05:49:42.754Z,6.30
2017-12-26T05:52:11.030Z,6.20
2017-12-26T05:54:39.449Z,6.30
2017-12-26T05:57:07.653Z,6.30
2017-12-26T05:59:35.915Z,6.30
2017-12-26T06:02:04.125Z,6.40
2017-12-26T06:04:32.353Z,6.30
2017-12-26T06:07:00.898Z,6.30
2017-12-26T06:09:29.898Z,6.30
2017-12-26T06:11:58.912Z,6.30
2017-12-26T06:14:27.866Z,6.30
2017-12-26T06:16:56.161Z,6.30
2017-12-26T06:19:25.455Z,6.30
2017-12-26T06:21:53.677Z,6.30
2017-12-26T06:24:21.881Z,6.40
2017-12-26T06:26:50.118Z,6.40
2017-12-26T06:29:18.350Z,6.30
2017-12-26T06:31:47.350Z,6.40
2017-12-26T06:34:15.594Z,6.30
2017-12-26T06:36:43.805Z,6.40
2017-12-26T06:39:12.796Z,6.40
2017-12-26T06:41:41.781Z,6.40
2017-12-26T06:44:10.786Z,6.40
2017-12-26T06:46:39.247Z,6.30
2017-12-26T06:49:08.242Z,6.40
2017-12-26T06:51:37.234Z,6.30
2017-12-26T06:54:06.238Z,6.30
2017-12-26T06:56:34.461Z,6.30
2017-12-26T06:59:02.689Z,6.40
2017-12-26T07:01:31.670Z,6.40
2017-12-26T07:04:00.646Z,6.40
2017-12-26T07:06:29.141Z,6.30
2017-12-26T07:08:58.121Z,6.40
2017-12-26T07:11:26.349Z,6.40
2017-12-26T07:13:54.553Z,6.40
2017-12-26T07:16:22.791Z,6.40
2017-12-26T07:18:50.998Z,6.40
2017-12-26T07:21:24.893Z,6.40
2017-12-26T07:23:53.170Z,6.40
2017-12-26T07:26:21.398Z,6.50
2017-12-26T07:28:50.402Z,6.50
2017-12-26T07:31:18.617Z,6.50
2017-12-26T07:33:46.850Z,6.60
2017-12-26T07:36:15.070Z,6.60
2017-12-26T07:38:43.300Z,6.60
2017-12-26T07:41:11.517Z,6.70
2017-12-26T07:43:39.753Z,6.70
2017-12-26T07:46:07.955Z,6.80
2017-12-26T07:48:36.233Z,6.90
2017-12-26T07:51:04.454Z,6.90
2017-12-26T07:53:33.431Z,7.20
2017-12-26T07:56:01.649Z,7.20
2017-12-26T07:58:29.877Z,7.40
2017-12-26T08:00:58.102Z,7.50
2017-12-26T08:03:26.545Z,7.60
2017-12-26T08:05:55.534Z,7.90
2017-12-26T08:08:24.522Z,8.00
2017-12-26T08:10:52.761Z,7.90
2017-12-26T08:13:20.969Z,8.00
2017-12-26T08:15:49.965Z,8.00
2017-12-26T08:18:18.185Z,7.90
2017-12-26T08:20:46.395Z,8.00
2017-12-26T08:23:14.637Z,8.00
2017-12-26T08:25:42.866Z,8.00
2017-12-26T08:28:11.083Z,8.10
2017-12-26T08:30:39.293Z,8.20
2017-12-26T08:33:07.743Z,8.20
2017-12-26T08:35:35.955Z,8.40
2017-12-26T08:38:04.181Z,8.50
2017-12-26T08:40:32.414Z,8.60
2017-12-26T08:43:00.758Z,8.70
2017-12-26T08:45:28.973Z,8.80
2017-12-26T08:47:57.965Z,9.00
2017-12-26T08:50:26.964Z,9.00
2017-12-26T08:52:55.943Z,9.10
2017-12-26T08:55:24.961Z,9.10
2017-12-26T08:57:53.182Z,9.10
2017-12-26T09:00:21.413Z,9.20
2017-12-26T09:02:50.406Z,9.30
2017-12-26T09:05:18.633Z,9.20
2017-12-26T09:07:46.853Z,9.30
2017-12-26T09:10:15.099Z,9.30
2017-12-26T09:12:43.316Z,9.30
2017-12-26T09:15:11.536Z,9.40
2017-12-26T09:17:39.765Z,9.40
2017-12-26T09:20:07.985Z,9.40
2017-12-26T09:22:36.218Z,9.40
2017-12-26T09:25:04.649Z,9.40
2017-12-26T09:27:32.871Z,9.40
2017-12-26T09:30:01.090Z,9.30
2017-12-26T09:32:29.318Z,9.40
2017-12-26T09:34:57.541Z,9.40
2017-12-26T09:37:25.797Z,9.40
2017-12-26T09:39:54.808Z,9.50
2017-12-26T09:42:23.015Z,9.40
2017-12-26T09:44:51.248Z,9.50
2017-12-26T09:47:19.460Z,9.50
2017-12-26T09:49:47.669Z,9.60
2017-12-26T09:52:15.881Z,9.60
2017-12-26T09:54:44.191Z,9.60
2017-12-26T09:57:12.427Z,9.60
2017-12-26T09:59:40.674Z,9.60
2017-12-26T10:02:09.003Z,9.60
2017-12-26T10:04:37.205Z,9.60
2017-12-26T10:07:05.413Z,9.70
2017-12-26T10:09:33.665Z,9.70
2017-12-26T10:12:01.876Z,9.70
2017-12-26T10:14:30.081Z,9.80
2017-12-26T10:16:58.309Z,9.80
2017-12-26T10:19:26.537Z,9.90
2017-12-26T10:21:54.771Z,9.90
2017-12-26T10:24:22.991Z,9.90
2017-12-26T10:26:51.222Z,10.00
2017-12-26T10:29:19.463Z,10.00
2017-12-26T10:31:48.642Z,10.00
2017-12-26T10:34:16.859Z,10.00
2017-12-26T10:36:45.842Z,10.00
2017-12-26T10:39:14.093Z,10.00
2017-12-26T10:41:42.534Z,10.00
2017-12-26T10:44:11.556Z,9.90
2017-12-26T10:46:39.771Z,9.80
2017-12-26T10:49:07.998Z,9.80
2017-12-26T10:51:36.970Z,9.60
2017-12-26T10:54:05.974Z,9.60
2017-12-26T10:56:34.199Z,9.50
2017-12-26T10:59:02.431Z,9.50
2017-12-26T11:01:30.676Z,9.40
2017-12-26T11:03:58.900Z,9.20
2017-12-26T11:06:27.130Z,9.00
2017-12-26T11:08:55.370Z,8.80
2017-12-26T11:11:23.615Z,8.50
2017-12-26T11:13:51.823Z,8.20
2017-12-26T11:16:20.827Z,7.80
2017-12-26T11:18:49.055Z,7.80
2017-12-26T11:21:17.277Z,7.80
2017-12-26T11:23:45.502Z,7.70
2017-12-26T11:26:13.731Z,7.60
2017-12-26T11:28:41.954Z,7.60
2017-12-26T11:31:10.188Z,7.60
2017-12-26T11:33:38.410Z,7.60
2017-12-26T11:36:06.838Z,7.60
2017-12-26T11:38:35.079Z,7.50
2017-12-26T11:41:03.305Z,7.50
2017-12-26T11:43:31.527Z,7.50
2017-12-26T11:45:59.756Z,7.60
2017-12-26T11:48:28.752Z,7.80
2017-12-26T11:50:56.978Z,7.70
2017-12-26T11:53:25.231Z,7.90
2017-12-26T11:55:53.444Z,8.00
2017-12-26T11:58:21.697Z,8.10
2017-12-26T12:00:49.905Z,8.20
2017-12-26T12:03:18.146Z,8.30
2017-12-26T12:05:46.516Z,8.30
2017-12-26T12:08:14.946Z,8.30
2017-12-26T12:10:43.170Z,8.30
2017-12-26T12:13:11.383Z,8.30
2017-12-26T12:15:39.660Z,8.40
2017-12-26T12:18:07.873Z,8.40
2017-12-26T12:20:36.114Z,8.40
2017-12-26T12:23:05.424Z,8.10
2017-12-26T12:25:34.417Z,8.10
2017-12-26T12:28:03.712Z,8.00
2017-12-26T12:30:32.722Z,8.00
2017-12-26T12:33:00.970Z,8.00
2017-12-26T12:35:29.204Z,8.00
2017-12-26T12:37:57.455Z,7.90
2017-12-26T12:40:25.686Z,7.80
2017-12-26T12:42:53.927Z,7.80
2017-12-26T12:45:22.167Z,7.80
2017-12-26T12:47:51.150Z,7.80
2017-12-26T12:50:20.151Z,7.70
2017-12-26T12:52:48.403Z,7.70
2017-12-26T12:55:16.630Z,7.60
2017-12-26T12:57:44.863Z,7.60
2017-12-26T13:00:13.106Z,7.60
2017-12-26T13:02:41.342Z,7.60
2017-12-26T13:05:09.558Z,7.60
2017-12-26T13:07:37.790Z,7.60
2017-12-26T13:10:06.019Z,7.70
2017-12-26T13:12:34.280Z,7.70
2017-12-26T13:15:03.275Z,7.80
2017-12-26T13:17:31.518Z,7.80
2017-12-26T13:19:59.762Z,7.90
2017-12-26T13:22:28.747Z,7.90
2017-12-26T13:24:57.768Z,8.00
2017-12-26T13:27:26.727Z,8.00
2017-12-26T13:29:55.751Z,8.00
2017-12-26T13:32:23.972Z,7.90
2017-12-26T13:34:52.218Z,8.00
2017-12-26T13:37:20.654Z,7.90
2017-12-26T13:39:49.733Z,8.00
2017-12-26T13:42:17.949Z,7.90
2017-12-26T13:44:46.179Z,7.90
2017-12-26T13:47:14.406Z,7.90
2017-12-26T13:49:42.627Z,7.90
2017-12-26T13:52:10.858Z,7.90
2017-12-26T13:54:39.054Z,7.90
2017-12-26T13:57:07.497Z,7.90
2017-12-26T13:59:35.706Z,7.90
2017-12-26T14:02:03.921Z,7.90
2017-12-26T14:04:32.914Z,7.90
2017-12-26T14:07:01.902Z,7.90
2017-12-26T14:09:30.890Z,7.90
2017-12-26T14:11:59.102Z,7.80
2017-12-26T14:14:27.345Z,7.80
2017-12-26T14:16:56.343Z,7.80
2017-12-26T14:19:25.349Z,7.70
2017-12-26T14:21:54.327Z,7.70
2017-12-26T14:24:23.315Z,7.60
2017-12-26T14:26:52.304Z,7.50
2017-12-26T14:29:21.313Z,7.40
2017-12-26T14:31:49.530Z,7.40
2017-12-26T14:34:17.754Z,7.30
2017-12-26T14:36:47.046Z,7.10
2017-12-26T14:39:16.040Z,7.00
2017-12-26T14:41:45.030Z,7.00
2017-12-26T14:44:13.257Z,6.90
2017-12-26T14:46:41.790Z,6.90
2017-12-26T14:49:09.985Z,6.80
2017-12-26T14:51:38.217Z,6.80
2017-12-26T14:54:06.425Z,6.80
2017-12-26T14:56:34.639Z,6.80
2017-12-26T14:59:02.869Z,6.70
2017-12-26T15:01:31.846Z,6.60
2017-12-26T15:04:00.842Z,6.60
2017-12-26T15:06:29.818Z,6.60
2017-12-26T15:08:58.050Z,6.50
2017-12-26T15:11:26.267Z,6.60
2017-12-26T15:13:54.498Z,6.60
2017-12-26T15:16:22.730Z,6.50
2017-12-26T15:21:48.570Z,6.50
2017-12-26T15:24:17.569Z,6.50
2017-12-26T15:26:45.818Z,6.50
2017-12-26T15:29:14.072Z,6.50
2017-12-26T15:31:42.325Z,6.50
2017-12-26T15:34:11.377Z,6.50
2017-12-26T15:36:39.582Z,6.50
2017-12-26T15:39:08.139Z,6.60
2017-12-26T15:41:37.122Z,6.60
2017-12-26T15:44:05.408Z,6.50
2017-12-26T15:46:33.762Z,6.60
2017-12-26T15:49:02.010Z,6.50
2017-12-26T15:51:30.222Z,6.50
2017-12-26T15:53:58.491Z,6.50
2017-12-26T15:56:26.704Z,6.50
2017-12-26T15:58:55.268Z,6.50
2017-12-26T16:01:24.276Z,6.60
2017-12-26T16:03:52.494Z,6.50
2017-12-26T16:06:20.725Z,6.60
2017-12-26T16:08:48.957Z,6.60
2017-12-26T16:11:17.990Z,6.60
2017-12-26T16:13:46.217Z,6.50
2017-12-26T16:16:14.462Z,6.60
2017-12-26T16:18:42.673Z,6.60
2017-12-26T16:21:10.935Z,6.60
2017-12-26T16:23:39.190Z,6.60
2017-12-26T16:26:07.626Z,6.50
2017-12-26T16:28:35.884Z,6.50
2017-12-26T16:31:04.111Z,6.50
2017-12-26T16:33:32.358Z,6.50
2017-12-26T16:36:01.337Z,6.50
2017-12-26T16:38:30.330Z,6.50
2017-12-26T16:40:58.566Z,6.40
2017-12-26T16:43:26.787Z,6.40
2017-12-26T16:45:55.768Z,6.40
2017-12-26T16:48:25.181Z,6.40
2017-12-26T16:50:54.193Z,6.30
2017-12-26T16:53:22.424Z,6.30
2017-12-26T16:55:50.637Z,6.30
2017-12-26T16:58:18.891Z,6.20
2017-12-26T17:00:48.653Z,6.20
2017-12-26T17:03:16.861Z,6.20
2017-12-26T17:05:45.877Z,6.10
2017-12-26T17:08:14.885Z,6.10
2017-12-26T17:10:43.121Z,6.10
2017-12-26T17:13:11.354Z,6.10
2017-12-26T17:15:39.575Z,6.10
2017-12-26T17:18:07.821Z,6.10
2017-12-26T17:20:36.862Z,6.10
2017-12-26T17:23:05.080Z,6.00
2017-12-26T17:25:33.308Z,6.10
2017-12-26T17:28:01.561Z,6.00
2017-12-26T17:30:30.570Z,6.10
2017-12-26T17:32:58.795Z,6.10
2017-12-26T17:35:27.437Z,6.20
2017-12-26T17:37:56.451Z,6.40
2017-12-26T17:40:24.675Z,6.40
2017-12-26T17:45:50.889Z,6.60
2017-12-26T17:48:19.113Z,6.50
2017-12-26T17:50:48.123Z,6.50
2017-12-26T17:53:16.361Z,6.40
2017-12-26T17:55:44.594Z,6.40
2017-12-26T17:58:12.819Z,6.40
2017-12-26T18:00:41.058Z,6.30
2017-12-26T18:03:09.264Z,6.30
2017-12-26T18:05:37.482Z,6.20
2017-12-26T18:08:05.780Z,6.10
2017-12-26T18:10:34.718Z,6.00
2017-12-26T18:13:02.986Z,6.00
2017-12-26T18:15:31.199Z,6.00
2017-12-26T18:17:59.441Z,6.00
2017-12-26T18:20:27.658Z,5.90
2017-12-26T18:22:55.934Z,5.90
2017-12-26T18:25:24.142Z,5.80
2017-12-26T18:27:52.447Z,5.80
2017-12-26T18:30:21.433Z,5.70
2017-12-26T18:32:49.657Z,5.70
2017-12-26T18:35:17.894Z,5.70
2017-12-26T18:37:46.893Z,5.70
2017-12-26T18:40:15.902Z,5.70
2017-12-26T18:42:44.111Z,5.60
2017-12-26T18:45:12.345Z,5.70
2017-12-26T18:47:40.574Z,5.60
2017-12-26T18:50:08.874Z,5.60
2017-12-26T18:52:37.101Z,5.60
2017-12-26T18:55:05.667Z,5.60
2017-12-26T18:57:33.906Z,5.60
2017-12-26T19:00:02.925Z,5.60
2017-12-26T19:02:31.158Z,5.50
2017-12-26T19:05:00.176Z,5.50
2017-12-26T19:07:29.213Z,5.50
2017-12-26T19:09:57.441Z,5.50
2017-12-26T19:12:25.677Z,5.50
2017-12-26T19:14:53.908Z,5.50
2017-12-26T19:17:22.137Z,5.60
2017-12-26T19:19:50.362Z,5.70
2017-12-26T19:22:18.597Z,5.70
2017-12-26T19:24:46.826Z,5.70
2017-12-26T19:27:15.261Z,5.90
2017-12-26T19:29:43.561Z,5.90
2017-12-26T19:32:11.959Z,6.00
2017-12-26T19:34:41.129Z,6.20
2017-12-26T19:37:09.357Z,6.10
2017-12-26T19:39:37.621Z,6.20
2017-12-26T19:42:05.848Z,6.30
2017-12-26T19:44:34.277Z,6.30
2017-12-26T19:47:02.641Z,6.40
2017-12-26T19:49:31.069Z,6.40
2017-12-26T19:52:00.076Z,6.40
2017-12-26T19:54:29.301Z,6.30
2017-12-26T19:56:57.662Z,6.30
2017-12-26T19:59:26.644Z,6.20
2017-12-26T20:01:55.017Z,6.10
2017-12-26T20:04:23.261Z,6.10
2017-12-26T20:06:51.600Z,6.00
2017-12-26T20:09:19.822Z,6.00
2017-12-26T20:11:48.829Z,5.90
2017-12-26T20:14:17.060Z,5.90
2017-12-26T20:19:44.659Z,5.80
2017-12-26T20:22:12.997Z,5.80
2017-12-26T20:24:41.214Z,5.80
2017-12-26T20:27:09.474Z,5.80
2017-12-26T20:29:38.398Z,5.80
2017-12-26T20:32:06.619Z,5.70
2017-12-26T20:34:34.849Z,5.70
2017-12-26T20:37:03.861Z,5.70
2017-12-26T20:39:32.973Z,5.70
2017-12-26T20:42:01.455Z,5.60
2017-12-26T20:44:29.919Z,5.60
2017-12-26T20:46:58.937Z,5.60
2017-12-26T20:49:27.216Z,5.50
2017-12-26T20:51:55.461Z,5.60
2017-12-26T20:54:23.691Z,5.60
2017-12-26T20:56:51.947Z,5.60
2017-12-26T20:59:20.160Z,5.60
2017-12-26T21:01:48.394Z,5.60
2017-12-26T21:04:16.640Z,5.60
2017-12-26T21:06:45.207Z,5.50
2017-12-26T21:09:14.235Z,5.50
2017-12-26T21:11:43.152Z,5.50
2017-12-26T21:14:11.664Z,5.50
2017-12-26T21:16:40.677Z,5.50
2017-12-26T21:19:09.350Z,5.50
2017-12-26T21:21:38.665Z,5.40
2017-12-26T21:24:07.633Z,5.40
2017-12-26T21:26:35.869Z,5.40
2017-12-26T21:29:04.077Z,5.40
2017-12-26T21:31:33.394Z,5.40
2017-12-26T21:34:02.381Z,5.40
2017-12-26T21:36:31.397Z,5.40
2017-12-26T21:38:59.653Z,5.30
2017-12-26T21:41:27.869Z,5.40
2017-12-26T21:43:56.086Z,5.30
2017-12-26T21:46:24.318Z,5.40
2017-12-26T21:48:52.534Z,5.30
2017-12-26T21:51:20.762Z,5.30
2017-12-26T21:53:49.809Z,5.30
2017-12-26T21:56:18.035Z,5.30
2017-12-26T21:58:46.293Z,5.30
2017-12-26T22:01:14.543Z,5.30
2017-12-26T22:03:42.837Z,5.30
2017-12-26T22:06:11.028Z,5.30
2017-12-26T22:08:39.254Z,5.30
2017-12-26T22:11:07.553Z,5.30
2017-12-26T22:13:36.573Z,5.30
2017-12-26T22:16:04.826Z,5.30
2017-12-26T22:18:33.046Z,5.30
2017-12-26T22:21:01.796Z,5.20
2017-12-26T22:23:31.161Z,5.20
2017-12-26T22:25:59.405Z,5.20
2017-12-26T22:28:27.654Z,5.20
2017-12-26T22:30:55.895Z,5.20
2017-12-26T22:33:24.983Z,5.20
2017-12-26T22:35:53.229Z,5.20
2017-12-26T22:38:21.547Z,5.20
2017-12-26T22:40:50.026Z,5.20
2017-12-26T22:43:18.240Z,5.20
2017-12-26T22:45:46.471Z,5.20
2017-12-26T22:48:15.489Z,5.20
2017-12-26T22:50:44.503Z,5.20
2017-12-26T22:53:12.728Z,5.10
2017-12-26T22:55:40.932Z,5.10
2017-12-26T22:58:09.172Z,5.20
2017-12-26T23:00:37.406Z,5.10
2017-12-26T23:03:05.933Z,5.20
2017-12-26T23:05:34.917Z,5.20
2017-12-26T23:08:03.161Z,5.10
2017-12-26T23:10:31.405Z,5.20
2017-12-26T23:12:59.617Z,5.20
2017-12-26T23:29:10.485Z,5.00
2017-12-26T23:31:44.449Z,5.00
2017-12-26T23:34:18.359Z,5.00
2017-12-26T23:36:52.351Z,5.00
2017-12-26T23:39:26.333Z,5.00
2017-12-26T23:44:59.922Z,5.00
2017-12-26T23:47:33.954Z,5.00
2017-12-26T23:50:07.885Z,5.00
2017-12-26T23:52:42.596Z,5.00
2017-12-26T23:55:17.353Z,5.00
